createdAt,value
2023-03-27T00:00:26.515Z,47.20
2023-03-27T00:05:29.365Z,47.30
2023-03-27T00:10:33.683Z,47.30
2023-03-27T00:15:37.627Z,47.20
2023-03-27T00:20:40.677Z,47.40
2023-03-27T00:25:46.359Z,47.40
2023-03-27T00:30:49.638Z,47.30
2023-03-27T00:35:53.220Z,47.10
2023-03-27T00:40:57.654Z,47.30
2023-03-27T00:46:03.998Z,47.30
2023-03-27T00:51:07.322Z,47.20
2023-03-27T00:56:12.203Z,47.30
2023-03-27T01:01:16.765Z,47.30
2023-03-27T01:06:20.110Z,47.40
2023-03-27T01:11:36.796Z,47.10
2023-03-27T01:16:46.929Z,47.40
2023-03-27T01:22:16.322Z,47.10
2023-03-27T01:27:22.874Z,46.70
2023-03-27T01:32:53.710Z,46.80
2023-03-27T01:38:11.497Z,47.00
2023-03-27T01:43:17.995Z,47.10
2023-03-27T01:48:27.009Z,47.10
2023-03-27T01:53:33.083Z,47.20
2023-03-27T01:58:42.400Z,47.00
2023-03-27T02:03:47.246Z,47.00
2023-03-27T02:08:52.754Z,46.90
2023-03-27T02:13:59.422Z,46.80
2023-03-27T02:19:04.143Z,47.00
2023-03-27T02:24:08.921Z,47.00
2023-03-27T02:29:41.535Z,47.10
2023-03-27T02:35:03.065Z,47.10
2023-03-27T02:40:13.738Z,47.20
2023-03-27T02:45:25.639Z,46.90
2023-03-27T02:50:32.941Z,47.10
2023-03-27T02:55:39.082Z,47.10
2023-03-27T03:00:48.805Z,47.00
2023-03-27T03:05:52.088Z,47.10
2023-03-27T03:11:01.113Z,47.10
2023-03-27T03:16:06.120Z,46.80
2023-03-27T03:21:08.926Z,47.10
2023-03-27T03:26:12.257Z,47.10
2023-03-27T03:31:16.957Z,47.20
2023-03-27T03:36:19.863Z,46.80
2023-03-27T03:41:22.652Z,47.00
2023-03-27T03:46:26.854Z,46.80
2023-03-27T03:51:31.341Z,47.00
2023-03-27T03:56:34.426Z,46.90
2023-03-27T04:01:40.758Z,47.00
2023-03-27T04:06:45.254Z,46.90
2023-03-27T04:11:48.142Z,46.90
2023-03-27T04:16:52.280Z,46.80
2023-03-27T04:21:56.239Z,46.80
2023-03-27T04:27:01.107Z,47.00
2023-03-27T04:32:06.748Z,46.80
2023-03-27T04:37:09.545Z,47.00
2023-03-27T04:42:12.625Z,46.80
2023-03-27T04:47:17.028Z,46.80
2023-03-27T04:52:20.002Z,47.00
2023-03-27T04:57:26.823Z,47.00
2023-03-27T05:02:31.258Z,46.90
2023-03-27T05:07:34.275Z,46.80
2023-03-27T05:12:37.197Z,46.70
2023-03-27T05:17:42.184Z,46.80
2023-03-27T05:22:45.327Z,46.90
2023-03-27T05:27:48.919Z,46.60
2023-03-27T05:32:53.824Z,46.80
2023-03-27T05:37:57.478Z,46.60
2023-03-27T05:43:00.502Z,46.70
2023-03-27T05:48:05.120Z,46.80
2023-03-27T05:53:11.511Z,46.70
2023-03-27T05:58:14.897Z,46.70
2023-03-27T06:03:20.363Z,46.80
2023-03-27T06:08:23.395Z,46.80
2023-03-27T06:13:26.222Z,46.50
2023-03-27T06:18:30.360Z,46.90
2023-03-27T06:23:33.366Z,46.80
2023-03-27T06:28:36.806Z,46.70
2023-03-27T06:33:41.137Z,46.60
2023-03-27T06:38:44.000Z,46.60
2023-03-27T06:43:46.919Z,46.80
2023-03-27T06:48:51.999Z,46.50
2023-03-27T06:53:55.266Z,46.60
2023-03-27T06:58:58.364Z,46.30
2023-03-27T07:04:02.941Z,46.50
2023-03-27T07:09:05.737Z,46.20
2023-03-27T07:14:08.628Z,46.40
2023-03-27T07:19:12.979Z,46.70
2023-03-27T07:24:15.867Z,47.40
2023-03-27T07:29:18.859Z,47.90
2023-03-27T07:34:24.494Z,47.10
2023-03-27T07:39:27.392Z,46.90
2023-03-27T07:44:30.229Z,47.10
2023-03-27T07:49:34.434Z,47.90
2023-03-27T07:54:43.723Z,47.90
2023-03-27T07:59:46.598Z,47.40
2023-03-27T08:04:52.053Z,47.30
2023-03-27T08:09:57.499Z,46.90
2023-03-27T08:15:00.782Z,46.60
2023-03-27T08:20:09.146Z,46.00
2023-03-27T08:25:12.628Z,45.80
2023-03-27T08:30:17.105Z,45.70
2023-03-27T08:35:21.619Z,45.20
2023-03-27T08:40:26.715Z,44.90
2023-03-27T08:45:33.335Z,44.50
2023-03-27T08:50:39.904Z,44.50
2023-03-27T08:55:44.550Z,44.50
2023-03-27T09:00:51.445Z,44.60
2023-03-27T09:05:59.248Z,44.30
2023-03-27T09:11:06.606Z,44.10
2023-03-27T09:16:15.444Z,43.90
2023-03-27T09:21:22.752Z,43.80
2023-03-27T09:26:31.410Z,43.90
2023-03-27T09:31:35.447Z,43.30
2023-03-27T09:36:39.770Z,43.10
2023-03-27T09:41:44.288Z,43.20
2023-03-27T09:46:49.240Z,42.50
2023-03-27T09:51:54.593Z,42.60
2023-03-27T09:57:01.881Z,42.30
2023-03-27T10:02:15.930Z,42.20
2023-03-27T10:07:25.948Z,42.10
2023-03-27T10:12:28.800Z,42.30
2023-03-27T10:17:36.736Z,41.80
2023-03-27T10:22:42.643Z,41.40
2023-03-27T10:27:46.543Z,41.00
2023-03-27T10:32:49.438Z,41.00
2023-03-27T10:37:54.015Z,40.60
2023-03-27T10:42:57.238Z,40.10
2023-03-27T10:48:01.995Z,40.20
2023-03-27T10:53:14.876Z,40.20
2023-03-27T10:58:24.725Z,39.90
2023-03-27T11:03:33.587Z,40.00
2023-03-27T11:08:54.451Z,40.10
2023-03-27T11:14:02.491Z,40.00
2023-03-27T11:19:25.627Z,39.70
2023-03-27T11:24:33.073Z,39.60
2023-03-27T11:29:41.212Z,39.80
2023-03-27T11:34:49.176Z,39.70
2023-03-27T11:39:55.949Z,39.40
2023-03-27T11:44:59.570Z,39.30
2023-03-27T11:50:15.683Z,39.30
2023-03-27T11:55:26.123Z,39.10
2023-03-27T12:00:32.772Z,39.10
2023-03-27T12:05:46.570Z,39.20
2023-03-27T12:10:53.356Z,39.00
2023-03-27T12:16:30.252Z,39.30
2023-03-27T12:21:44.945Z,39.30
2023-03-27T12:27:05.270Z,39.20
2023-03-27T12:32:18.006Z,39.30
2023-03-27T12:37:24.603Z,39.30
2023-03-27T12:42:45.390Z,39.00
2023-03-27T12:48:09.985Z,39.00
2023-03-27T12:53:20.825Z,38.60
2023-03-27T12:58:36.816Z,38.70
2023-03-27T13:04:07.254Z,38.30
2023-03-27T13:09:21.244Z,38.10
2023-03-27T13:14:51.436Z,37.60
2023-03-27T13:19:59.664Z,37.60
2023-03-27T13:25:27.118Z,37.50
2023-03-27T13:30:47.279Z,37.60
2023-03-27T13:36:02.825Z,37.70
2023-03-27T13:41:56.325Z,37.60
2023-03-27T13:47:11.910Z,37.60
2023-03-27T13:52:26.270Z,37.70
2023-03-27T13:57:44.102Z,37.70
2023-03-27T14:03:21.058Z,37.60
2023-03-27T14:08:33.628Z,37.50
2023-03-27T14:13:46.214Z,37.40
2023-03-27T14:19:26.969Z,37.30
2023-03-27T14:24:32.932Z,37.30
2023-03-27T14:29:37.220Z,37.20
2023-03-27T14:34:53.255Z,37.40
2023-03-27T14:39:57.554Z,37.00
2023-03-27T14:45:11.628Z,37.00
2023-03-27T14:50:21.620Z,35.70
2023-03-27T14:55:29.813Z,35.50
2023-03-27T15:00:35.051Z,35.10
2023-03-27T15:05:54.001Z,35.40
2023-03-27T15:10:58.745Z,35.50
2023-03-27T15:16:02.922Z,35.30
2023-03-27T15:21:10.064Z,35.10
2023-03-27T15:26:15.635Z,34.80
2023-03-27T15:31:18.829Z,35.00
2023-03-27T15:36:27.741Z,35.10
2023-03-27T15:41:44.140Z,35.30
2023-03-27T15:46:55.329Z,35.10
2023-03-27T15:52:01.340Z,35.20
2023-03-27T15:57:10.136Z,35.30
2023-03-27T16:02:16.179Z,35.20
2023-03-27T16:07:22.733Z,36.00
2023-03-27T16:12:28.267Z,35.80
2023-03-27T16:17:35.549Z,35.30
2023-03-27T16:22:40.564Z,35.20
2023-03-27T16:27:47.472Z,35.10
2023-03-27T16:32:51.044Z,35.10
2023-03-27T16:37:55.402Z,35.10
2023-03-27T16:42:58.273Z,35.50
2023-03-27T16:48:01.172Z,35.50
2023-03-27T16:53:05.444Z,36.10
2023-03-27T16:58:08.271Z,36.30
2023-03-27T17:03:11.581Z,36.00
2023-03-27T17:08:18.483Z,36.20
2023-03-27T17:13:21.294Z,36.40
2023-03-27T17:18:24.195Z,36.30
2023-03-27T17:23:28.446Z,36.20
2023-03-27T17:28:32.031Z,36.30
2023-03-27T17:33:35.033Z,36.30
2023-03-27T17:38:39.726Z,36.50
2023-03-27T17:43:42.524Z,36.40
2023-03-27T17:48:45.913Z,36.50
2023-03-27T17:53:50.094Z,36.40
2023-03-27T17:58:53.390Z,36.40
2023-03-27T18:03:57.880Z,36.40
2023-03-27T18:09:02.130Z,36.30
2023-03-27T18:14:05.007Z,36.20
2023-03-27T18:19:08.905Z,36.50
2023-03-27T18:24:13.406Z,36.40
2023-03-27T18:29:16.454Z,36.40
2023-03-27T18:34:19.268Z,36.30
2023-03-27T18:39:23.555Z,36.40
2023-03-27T18:44:26.839Z,36.20
2023-03-27T18:49:29.727Z,36.20
2023-03-27T18:54:33.905Z,36.30
2023-03-27T18:59:37.006Z,36.10
2023-03-27T19:04:39.856Z,36.20
2023-03-27T19:09:45.512Z,36.20
2023-03-27T19:14:48.422Z,36.00
2023-03-27T19:19:51.309Z,36.20
2023-03-27T19:24:55.547Z,36.30
2023-03-27T19:29:58.349Z,36.10
2023-03-27T19:35:01.237Z,36.20
2023-03-27T19:40:06.455Z,36.30
2023-03-27T19:45:10.200Z,36.30
2023-03-27T19:50:14.557Z,36.30
2023-03-27T19:55:23.976Z,36.40
2023-03-27T20:00:27.218Z,36.30
2023-03-27T20:05:30.873Z,36.50
2023-03-27T20:10:35.010Z,36.50
2023-03-27T20:15:40.642Z,36.60
2023-03-27T20:20:43.452Z,36.60
2023-03-27T20:25:51.628Z,36.60
2023-03-27T20:30:54.574Z,36.70
2023-03-27T20:35:57.667Z,36.70
2023-03-27T20:41:03.551Z,36.70
2023-03-27T20:46:07.107Z,36.60
2023-03-27T20:51:14.671Z,36.90
2023-03-27T20:56:19.012Z,36.90
2023-03-27T21:01:27.847Z,36.90
2023-03-27T21:06:30.863Z,36.80
2023-03-27T21:11:35.198Z,36.90
2023-03-27T21:16:38.442Z,37.00
2023-03-27T21:21:41.313Z,37.10
2023-03-27T21:26:45.486Z,37.10
2023-03-27T21:31:48.366Z,37.10
2023-03-27T21:36:51.466Z,37.10
2023-03-27T21:41:55.739Z,37.10
2023-03-27T21:46:58.615Z,37.00
2023-03-27T21:52:01.413Z,37.10
2023-03-27T21:57:05.999Z,37.10
2023-03-27T22:02:09.007Z,37.00
2023-03-27T22:07:11.823Z,37.00
2023-03-27T22:12:16.550Z,37.10
2023-03-27T22:17:19.436Z,37.00
2023-03-27T22:22:22.482Z,37.00
2023-03-27T22:27:26.684Z,37.20
2023-03-27T22:32:29.571Z,37.10
2023-03-27T22:37:32.410Z,37.10
2023-03-27T22:42:36.806Z,37.10
2023-03-27T22:47:39.745Z,37.00
2023-03-27T22:52:42.610Z,37.00
2023-03-27T22:57:46.770Z,37.20
2023-03-27T23:02:49.800Z,37.00
2023-03-27T23:07:52.692Z,37.10
2023-03-27T23:12:56.826Z,37.10
2023-03-27T23:17:59.769Z,37.00
2023-03-27T23:23:03.830Z,37.20
2023-03-27T23:28:08.018Z,37.10
2023-03-27T23:33:11.119Z,37.20
2023-03-27T23:38:14.021Z,37.10
2023-03-27T23:43:18.171Z,37.20
2023-03-27T23:48:21.173Z,37.10
2023-03-27T23:53:25.744Z,37.10
2023-03-27T23:58:32.448Z,37.30
